createdAt,value
2023-05-14T00:05:01.306Z,99362.00
2023-05-14T00:10:04.448Z,99361.69
2023-05-14T00:15:10.127Z,99358.63
2023-05-14T00:20:13.610Z,99350.88
2023-05-14T00:25:16.539Z,99340.53
2023-05-14T00:30:20.827Z,99336.88
2023-05-14T00:35:24.059Z,99340.16
2023-05-14T00:40:28.423Z,99331.31
2023-05-14T00:45:32.658Z,99329.34
2023-05-14T00:50:36.492Z,99327.34
2023-05-14T00:55:42.067Z,99324.56
2023-05-14T01:00:46.895Z,99318.56
2023-05-14T01:05:58.305Z,99324.13
2023-05-14T01:11:08.401Z,99316.59
2023-05-14T01:16:14.972Z,99320.09
2023-05-14T01:21:35.870Z,99312.44
2023-05-14T01:26:38.894Z,99321.53
2023-05-14T01:31:45.337Z,99329.81
2023-05-14T01:36:51.488Z,99322.19
2023-05-14T01:41:55.410Z,99316.78
2023-05-14T01:46:58.817Z,99308.47
2023-05-14T01:52:03.048Z,99312.84
2023-05-14T01:57:06.470Z,99306.09
2023-05-14T02:02:09.456Z,99309.00
2023-05-14T02:07:13.734Z,99309.00
2023-05-14T02:12:16.670Z,99308.41
2023-05-14T02:17:19.604Z,99308.47
2023-05-14T02:22:23.884Z,99297.38
2023-05-14T02:27:26.911Z,99300.31
2023-05-14T02:32:29.905Z,99300.06
2023-05-14T02:37:34.764Z,99299.69
2023-05-14T02:42:37.740Z,99302.56
2023-05-14T02:47:41.244Z,99300.97
2023-05-14T02:52:45.681Z,99287.31
2023-05-14T02:57:48.590Z,99282.91
2023-05-14T03:02:51.792Z,99280.75
2023-05-14T03:07:56.511Z,99285.66
2023-05-14T03:12:59.383Z,99290.69
2023-05-14T03:18:02.338Z,99289.50
2023-05-14T03:23:06.853Z,99287.06
2023-05-14T03:28:09.844Z,99299.56
2023-05-14T03:33:12.763Z,99288.88
2023-05-14T03:38:17.068Z,99284.22
2023-05-14T03:43:22.924Z,99276.13
2023-05-14T03:48:26.448Z,99277.56
2023-05-14T03:53:30.862Z,99268.25
2023-05-14T03:58:33.903Z,99262.63
2023-05-14T04:03:36.942Z,99255.88
2023-05-14T04:08:41.840Z,99271.13
2023-05-14T04:13:44.861Z,99259.56
2023-05-14T04:18:48.213Z,99263.56
2023-05-14T04:23:52.728Z,99262.63
2023-05-14T04:28:55.736Z,99252.50
2023-05-14T04:33:58.628Z,99249.31
2023-05-14T04:39:02.961Z,99254.72
2023-05-14T04:44:06.797Z,99246.66
2023-05-14T04:49:09.632Z,99246.41
2023-05-14T04:54:13.953Z,99241.72
2023-05-14T04:59:16.896Z,99240.88
2023-05-14T05:04:20.128Z,99241.47
2023-05-14T05:09:24.447Z,99238.03
2023-05-14T05:14:27.299Z,99238.72
2023-05-14T05:19:42.439Z,99226.31
2023-05-14T05:24:49.772Z,99234.13
2023-05-14T05:29:53.030Z,99231.88
2023-05-14T05:34:55.949Z,99227.34
2023-05-14T05:40:00.180Z,99215.53
2023-05-14T05:45:03.059Z,99217.19
2023-05-14T05:50:07.614Z,99222.50
2023-05-14T05:55:12.156Z,99210.91
2023-05-14T06:00:16.926Z,99216.38
2023-05-14T06:05:20.033Z,99219.63
2023-05-14T06:10:25.757Z,99213.84
2023-05-14T06:15:28.847Z,99224.72
2023-05-14T06:20:31.719Z,99218.13
2023-05-14T06:25:35.992Z,99215.38
2023-05-14T06:30:38.865Z,99213.88
2023-05-14T06:35:41.795Z,99215.88
2023-05-14T06:40:46.001Z,99211.16
2023-05-14T06:45:50.067Z,99206.16
2023-05-14T06:50:52.999Z,99208.97
2023-05-14T06:55:57.373Z,99208.53
2023-05-14T07:01:01.700Z,99204.28
2023-05-14T07:06:04.842Z,99192.94
2023-05-14T07:11:09.149Z,99191.84
2023-05-14T07:16:12.049Z,99200.72
2023-05-14T07:21:14.948Z,99182.47
2023-05-14T07:26:19.277Z,99186.19
2023-05-14T07:31:22.226Z,99177.47
2023-05-14T07:36:25.153Z,99172.09
2023-05-14T07:41:29.487Z,99189.09
2023-05-14T07:46:32.392Z,99169.22
2023-05-14T07:51:35.435Z,99166.34
2023-05-14T07:56:39.765Z,99155.25
2023-05-14T08:01:42.771Z,99164.16
2023-05-14T08:06:45.741Z,99153.44
2023-05-14T08:11:50.035Z,99157.56
2023-05-14T08:16:53.116Z,99159.88
2023-05-14T08:21:56.080Z,99143.00
2023-05-14T08:27:00.564Z,99142.63
2023-05-14T08:32:11.673Z,99148.78
2023-05-14T08:37:22.587Z,99147.63
2023-05-14T08:42:29.754Z,99134.00
2023-05-14T08:47:32.780Z,99147.09
2023-05-14T08:52:36.501Z,99139.13
2023-05-14T08:57:41.452Z,99142.94
2023-05-14T09:02:46.579Z,99141.94
2023-05-14T09:07:49.669Z,99143.56
2023-05-14T09:12:53.987Z,99144.59
2023-05-14T09:17:57.758Z,99144.72
2023-05-14T09:23:01.715Z,99141.50
2023-05-14T09:28:10.128Z,99133.78
2023-05-14T09:33:13.041Z,99127.69
2023-05-14T09:38:16.225Z,99115.72
2023-05-14T09:43:20.901Z,99112.16
2023-05-14T09:48:24.466Z,99106.41
2023-05-14T09:53:27.440Z,99100.72
2023-05-14T09:58:31.698Z,99090.91
2023-05-14T10:03:34.566Z,99080.19
2023-05-14T10:08:44.810Z,99068.28
2023-05-14T10:13:56.879Z,99071.91
2023-05-14T10:19:06.075Z,99074.03
2023-05-14T10:24:10.735Z,99068.25
2023-05-14T10:29:15.186Z,99064.47
2023-05-14T10:34:38.614Z,99058.94
2023-05-14T10:39:43.762Z,99063.94
2023-05-14T10:44:54.352Z,99047.50
2023-05-14T10:49:59.781Z,99045.69
2023-05-14T10:55:07.758Z,99044.97
2023-05-14T11:00:14.498Z,99049.66
2023-05-14T11:05:18.222Z,99040.94
2023-05-14T11:10:23.249Z,99043.00
2023-05-14T11:15:28.388Z,99025.03
2023-05-14T11:20:32.755Z,99031.63
2023-05-14T11:25:35.637Z,99028.44
2023-05-14T11:30:39.882Z,99019.63
2023-05-14T11:35:45.449Z,99011.78
2023-05-14T11:40:54.110Z,99010.84
2023-05-14T11:45:58.475Z,98998.78
2023-05-14T11:51:01.421Z,99004.69
2023-05-14T11:56:04.459Z,98995.97
2023-05-14T12:01:14.270Z,98983.91
2023-05-14T12:06:17.329Z,98986.56
2023-05-14T12:11:22.431Z,98979.31
2023-05-14T12:16:32.335Z,98973.81
2023-05-14T12:21:36.632Z,98969.16
2023-05-14T12:26:39.951Z,98969.97
2023-05-14T12:31:49.036Z,98966.66
2023-05-14T12:36:52.927Z,98949.59
2023-05-14T12:41:55.809Z,98949.44
2023-05-14T12:47:00.282Z,98939.59
2023-05-14T12:52:17.284Z,98937.00
2023-05-14T12:57:25.605Z,98938.47
2023-05-14T13:02:29.856Z,98926.13
2023-05-14T13:07:32.842Z,98928.81
2023-05-14T13:12:35.824Z,98931.34
2023-05-14T13:17:41.335Z,98935.38
2023-05-14T13:22:44.279Z,98929.97
2023-05-14T13:27:47.143Z,98930.91
2023-05-14T13:32:51.597Z,98919.22
2023-05-14T13:37:54.565Z,98922.28
2023-05-14T13:42:57.646Z,98923.16
2023-05-14T13:48:01.941Z,98915.25
2023-05-14T13:53:04.829Z,98917.75
2023-05-14T13:58:09.956Z,98923.16
2023-05-14T14:03:14.273Z,98916.88
2023-05-14T14:08:23.473Z,98918.88
2023-05-14T14:13:27.809Z,98914.44
2023-05-14T14:18:32.080Z,98894.66
2023-05-14T14:23:34.994Z,98890.34
2023-05-14T14:28:38.042Z,98880.41
2023-05-14T14:33:42.354Z,98877.38
2023-05-14T14:38:45.245Z,98875.44
2023-05-14T14:43:48.164Z,98870.78
2023-05-14T14:48:52.744Z,98875.19
2023-05-14T14:53:55.584Z,98871.59
2023-05-14T14:58:58.430Z,98875.09
2023-05-14T15:04:02.743Z,98867.09
2023-05-14T15:09:05.686Z,98862.91
2023-05-14T15:14:08.614Z,98859.97
2023-05-14T15:19:12.905Z,98858.66
2023-05-14T15:24:16.014Z,98854.81
2023-05-14T15:29:18.925Z,98856.28
2023-05-14T15:34:23.209Z,98848.38
2023-05-14T15:39:26.299Z,98837.06
2023-05-14T15:44:29.815Z,98840.72
2023-05-14T15:49:34.029Z,98839.13
2023-05-14T15:54:37.015Z,98834.34
2023-05-14T15:59:39.923Z,98834.66
2023-05-14T16:04:45.164Z,98831.75
2023-05-14T16:09:48.037Z,98836.44
2023-05-14T16:14:50.989Z,98837.53
2023-05-14T16:19:56.444Z,98841.25
2023-05-14T16:25:01.795Z,98843.00
2023-05-14T16:30:07.454Z,98846.19
2023-05-14T16:35:12.004Z,98843.72
2023-05-14T16:40:16.208Z,98840.28
2023-05-14T16:45:19.215Z,98847.47
2023-05-14T16:50:23.666Z,98849.56
2023-05-14T16:55:27.178Z,98842.09
2023-05-14T17:00:30.214Z,98840.72
2023-05-14T17:05:35.985Z,98831.19
2023-05-14T17:10:39.126Z,98827.72
2023-05-14T17:15:42.541Z,98818.66
2023-05-14T17:20:46.840Z,98814.72
2023-05-14T17:25:49.827Z,98817.06
2023-05-14T17:30:52.785Z,98816.81
2023-05-14T17:35:57.072Z,98817.47
2023-05-14T17:41:00.007Z,98819.53
2023-05-14T17:46:03.616Z,98831.81
2023-05-14T17:51:08.020Z,98822.34
2023-05-14T17:56:11.362Z,98820.94
2023-05-14T18:01:14.351Z,98817.91
2023-05-14T18:06:18.851Z,98819.50
2023-05-14T18:11:21.801Z,98820.59
2023-05-14T18:16:24.776Z,98814.91
2023-05-14T18:21:29.192Z,98821.91
2023-05-14T18:26:34.201Z,98819.59
2023-05-14T18:31:37.405Z,98825.78
2023-05-14T18:36:41.844Z,98819.03
2023-05-14T18:41:44.759Z,98825.38
2023-05-14T18:46:47.687Z,98829.38
2023-05-14T18:51:51.986Z,98841.75
2023-05-14T18:56:54.933Z,98842.13
2023-05-14T19:01:57.990Z,98838.81
2023-05-14T19:07:02.570Z,98840.41
2023-05-14T19:12:05.713Z,98841.94
2023-05-14T19:17:08.686Z,98844.19
2023-05-14T19:22:12.963Z,98836.03
2023-05-14T19:27:17.330Z,98844.25
2023-05-14T19:32:20.233Z,98850.97
2023-05-14T19:37:24.866Z,98848.19
2023-05-14T19:42:27.831Z,98841.84
2023-05-14T19:47:30.908Z,98838.19
2023-05-14T19:52:35.178Z,98836.97
2023-05-14T19:57:39.171Z,98840.97
2023-05-14T20:02:43.214Z,98830.59
2023-05-14T20:07:48.893Z,98834.00
2023-05-14T20:12:51.809Z,98830.13
2023-05-14T20:17:54.928Z,98824.44
2023-05-14T20:22:59.358Z,98817.09
2023-05-14T20:28:02.364Z,98814.69
2023-05-14T20:33:05.323Z,98807.34
2023-05-14T20:38:09.706Z,98801.56
2023-05-14T20:43:12.547Z,98797.34
2023-05-14T20:48:17.532Z,98792.69
2023-05-14T20:53:21.886Z,98784.56
2023-05-14T20:58:24.792Z,98779.34
2023-05-14T21:03:27.820Z,98786.94
2023-05-14T21:08:32.972Z,98783.31
2023-05-14T21:13:35.884Z,98775.47
2023-05-14T21:18:38.809Z,98771.63
2023-05-14T21:23:43.146Z,98767.66
2023-05-14T21:28:45.997Z,98765.03
2023-05-14T21:33:48.903Z,98762.09
2023-05-14T21:38:53.922Z,98754.13
2023-05-14T21:43:56.791Z,98754.72
2023-05-14T21:49:00.070Z,98738.09
2023-05-14T21:54:04.481Z,98734.13
2023-05-14T21:59:07.442Z,98721.59
2023-05-14T22:04:10.349Z,98727.44
2023-05-14T22:09:14.676Z,98721.22
2023-05-14T22:14:17.604Z,98720.41
2023-05-14T22:19:20.501Z,98715.22
2023-05-14T22:24:24.778Z,98712.59
2023-05-14T22:29:27.666Z,98710.72
2023-05-14T22:34:30.571Z,98706.88
2023-05-14T22:39:34.828Z,98704.53
2023-05-14T22:44:37.787Z,98695.00
2023-05-14T22:49:42.335Z,98694.72
2023-05-14T22:54:46.714Z,98690.06
2023-05-14T22:59:49.726Z,98680.03
2023-05-14T23:04:52.739Z,98673.41
2023-05-14T23:09:57.119Z,98663.81
2023-05-14T23:14:59.996Z,98650.75
2023-05-14T23:20:05.162Z,98652.84
2023-05-14T23:25:10.559Z,98650.22
2023-05-14T23:30:14.175Z,98645.19
2023-05-14T23:35:17.269Z,98631.31
2023-05-14T23:40:21.480Z,98622.06
2023-05-14T23:45:24.639Z,98620.41
2023-05-14T23:50:28.162Z,98606.44
2023-05-14T23:55:32.475Z,98607.59
